sensor_id;sensor_type;location;lat;lon;timestamp;P1;durP1;ratioP1;P2;durP2;ratioP2
19595;SDS011;9945;46.010;8.946;2023-04-28T00:00:05;10.13;;;6.10;;
19595;SDS011;9945;46.010;8.946;2023-04-28T00:02:33;8.43;;;5.65;;
19595;SDS011;9945;46.010;8.946;2023-04-28T00:04:59;7.20;;;6.28;;
19595;SDS011;9945;46.010;8.946;2023-04-28T00:07:26;6.40;;;5.80;;
19595;SDS011;9945;46.010;8.946;2023-04-28T00:09:54;7.25;;;5.47;;
19595;SDS011;9945;46.010;8.946;2023-04-28T00:12:22;6.22;;;5.20;;
19595;SDS011;9945;46.010;8.946;2023-04-28T00:14:49;6.07;;;4.93;;
19595;SDS011;9945;46.010;8.946;2023-04-28T00:17:16;9.38;;;5.65;;
19595;SDS011;9945;46.010;8.946;2023-04-28T00:19:43;5.82;;;4.95;;
19595;SDS011;9945;46.010;8.946;2023-04-28T00:22:10;6.30;;;5.18;;
19595;SDS011;9945;46.010;8.946;2023-04-28T00:24:37;4.88;;;4.47;;
19595;SDS011;9945;46.010;8.946;2023-04-28T00:27:07;8.35;;;5.18;;
19595;SDS011;9945;46.010;8.946;2023-04-28T00:29:34;4.75;;;4.35;;
19595;SDS011;9945;46.010;8.946;2023-04-28T00:32:01;5.07;;;4.57;;
19595;SDS011;9945;46.010;8.946;2023-04-28T00:34:31;5.07;;;4.20;;
19595;SDS011;9945;46.010;8.946;2023-04-28T00:36:58;6.28;;;4.40;;
19595;SDS011;9945;46.010;8.946;2023-04-28T00:39:25;6.35;;;4.10;;
19595;SDS011;9945;46.010;8.946;2023-04-28T00:41:51;7.15;;;4.78;;
19595;SDS011;9945;46.010;8.946;2023-04-28T00:44:20;6.28;;;4.53;;
19595;SDS011;9945;46.010;8.946;2023-04-28T00:46:46;4.50;;;4.10;;
19595;SDS011;9945;46.010;8.946;2023-04-28T00:49:13;5.32;;;4.00;;
19595;SDS011;9945;46.010;8.946;2023-04-28T00:51:41;5.70;;;4.60;;
19595;SDS011;9945;46.010;8.946;2023-04-28T00:54:07;4.38;;;3.97;;
19595;SDS011;9945;46.010;8.946;2023-04-28T00:56:38;5.13;;;3.80;;
19595;SDS011;9945;46.010;8.946;2023-04-28T00:59:05;5.20;;;4.18;;
19595;SDS011;9945;46.010;8.946;2023-04-28T01:01:34;5.05;;;4.65;;
19595;SDS011;9945;46.010;8.946;2023-04-28T01:04:01;6.65;;;4.45;;
19595;SDS011;9945;46.010;8.946;2023-04-28T01:06:27;5.20;;;4.68;;
19595;SDS011;9945;46.010;8.946;2023-04-28T01:08:55;5.00;;;4.50;;
19595;SDS011;9945;46.010;8.946;2023-04-28T01:11:22;4.80;;;4.40;;
19595;SDS011;9945;46.010;8.946;2023-04-28T01:13:49;4.82;;;4.28;;
19595;SDS011;9945;46.010;8.946;2023-04-28T01:16:16;4.40;;;4.07;;
19595;SDS011;9945;46.010;8.946;2023-04-28T01:18:45;5.07;;;4.47;;
19595;SDS011;9945;46.010;8.946;2023-04-28T01:21:13;4.63;;;4.22;;
19595;SDS011;9945;46.010;8.946;2023-04-28T01:23:39;4.50;;;3.80;;
19595;SDS011;9945;46.010;8.946;2023-04-28T01:26:08;5.75;;;4.18;;
19595;SDS011;9945;46.010;8.946;2023-04-28T01:28:34;6.18;;;4.65;;
19595;SDS011;9945;46.010;8.946;2023-04-28T01:31:01;5.10;;;4.65;;
19595;SDS011;9945;46.010;8.946;2023-04-28T01:33:28;5.45;;;4.95;;
19595;SDS011;9945;46.010;8.946;2023-04-28T01:35:56;5.50;;;4.50;;
19595;SDS011;9945;46.010;8.946;2023-04-28T01:38:23;5.57;;;4.38;;
19595;SDS011;9945;46.010;8.946;2023-04-28T01:40:50;6.57;;;4.35;;
19595;SDS011;9945;46.010;8.946;2023-04-28T01:43:19;8.35;;;4.97;;
19595;SDS011;9945;46.010;8.946;2023-04-28T01:45:46;7.43;;;5.20;;
19595;SDS011;9945;46.010;8.946;2023-04-28T01:48:13;5.53;;;4.78;;
19595;SDS011;9945;46.010;8.946;2023-04-28T01:50:40;4.75;;;4.00;;
19595;SDS011;9945;46.010;8.946;2023-04-28T01:53:06;5.03;;;4.53;;
19595;SDS011;9945;46.010;8.946;2023-04-28T01:55:33;4.78;;;4.38;;
19595;SDS011;9945;46.010;8.946;2023-04-28T01:58:00;4.57;;;3.97;;
19595;SDS011;9945;46.010;8.946;2023-04-28T02:00:28;9.10;;;5.05;;
19595;SDS011;9945;46.010;8.946;2023-04-28T02:02:55;6.30;;;5.10;;
19595;SDS011;9945;46.010;8.946;2023-04-28T02:05:22;4.93;;;4.25;;
19595;SDS011;9945;46.010;8.946;2023-04-28T02:07:49;5.35;;;4.78;;
19595;SDS011;9945;46.010;8.946;2023-04-28T02:10:16;4.80;;;4.40;;
19595;SDS011;9945;46.010;8.946;2023-04-28T02:12:43;8.27;;;4.82;;
19595;SDS011;9945;46.010;8.946;2023-04-28T02:15:10;5.22;;;4.30;;
19595;SDS011;9945;46.010;8.946;2023-04-28T02:17:38;6.55;;;5.13;;
19595;SDS011;9945;46.010;8.946;2023-04-28T02:20:05;6.53;;;4.28;;
19595;SDS011;9945;46.010;8.946;2023-04-28T02:22:33;5.35;;;4.78;;
19595;SDS011;9945;46.010;8.946;2023-04-28T02:24:59;7.88;;;4.40;;
19595;SDS011;9945;46.010;8.946;2023-04-28T02:27:26;5.75;;;5.18;;
19595;SDS011;9945;46.010;8.946;2023-04-28T02:29:53;6.13;;;5.53;;
19595;SDS011;9945;46.010;8.946;2023-04-28T02:32:20;5.47;;;4.97;;
19595;SDS011;9945;46.010;8.946;2023-04-28T02:34:52;6.65;;;5.47;;
19595;SDS011;9945;46.010;8.946;2023-04-28T02:37:19;5.25;;;4.65;;
19595;SDS011;9945;46.010;8.946;2023-04-28T02:39:46;5.45;;;4.95;;
19595;SDS011;9945;46.010;8.946;2023-04-28T02:42:13;6.15;;;4.80;;
19595;SDS011;9945;46.010;8.946;2023-04-28T02:44:40;5.47;;;4.75;;
19595;SDS011;9945;46.010;8.946;2023-04-28T02:47:07;5.97;;;4.75;;
19595;SDS011;9945;46.010;8.946;2023-04-28T02:49:34;4.93;;;4.43;;
19595;SDS011;9945;46.010;8.946;2023-04-28T02:52:02;5.57;;;4.75;;
19595;SDS011;9945;46.010;8.946;2023-04-28T02:54:29;7.28;;;4.90;;
19595;SDS011;9945;46.010;8.946;2023-04-28T02:56:58;7.65;;;4.65;;
19595;SDS011;9945;46.010;8.946;2023-04-28T02:59:25;5.20;;;4.47;;
19595;SDS011;9945;46.010;8.946;2023-04-28T03:01:52;6.75;;;4.65;;
19595;SDS011;9945;46.010;8.946;2023-04-28T03:04:19;5.47;;;4.97;;
19595;SDS011;9945;46.010;8.946;2023-04-28T03:06:45;5.22;;;4.72;;
19595;SDS011;9945;46.010;8.946;2023-04-28T03:09:14;5.47;;;4.95;;
19595;SDS011;9945;46.010;8.946;2023-04-28T03:11:41;8.90;;;4.60;;
19595;SDS011;9945;46.010;8.946;2023-04-28T03:14:08;5.00;;;4.50;;
19595;SDS011;9945;46.010;8.946;2023-04-28T03:16:35;5.30;;;4.78;;
19595;SDS011;9945;46.010;8.946;2023-04-28T03:19:02;4.95;;;4.55;;
19595;SDS011;9945;46.010;8.946;2023-04-28T03:21:29;5.53;;;4.90;;
19595;SDS011;9945;46.010;8.946;2023-04-28T03:23:56;6.18;;;4.70;;
19595;SDS011;9945;46.010;8.946;2023-04-28T03:26:24;4.97;;;4.47;;
19595;SDS011;9945;46.010;8.946;2023-04-28T03:28:51;6.50;;;4.85;;
19595;SDS011;9945;46.010;8.946;2023-04-28T03:31:18;4.80;;;4.40;;
19595;SDS011;9945;46.010;8.946;2023-04-28T03:33:45;5.38;;;4.90;;
19595;SDS011;9945;46.010;8.946;2023-04-28T03:36:12;6.72;;;5.00;;
19595;SDS011;9945;46.010;8.946;2023-04-28T03:38:39;6.13;;;4.63;;
19595;SDS011;9945;46.010;8.946;2023-04-28T03:41:05;6.60;;;5.03;;
19595;SDS011;9945;46.010;8.946;2023-04-28T03:43:34;7.05;;;5.30;;
19595;SDS011;9945;46.010;8.946;2023-04-28T03:46:01;5.70;;;5.20;;
19595;SDS011;9945;46.010;8.946;2023-04-28T03:48:28;6.00;;;5.43;;
19595;SDS011;9945;46.010;8.946;2023-04-28T03:50:55;6.97;;;5.00;;
19595;SDS011;9945;46.010;8.946;2023-04-28T03:53:22;6.15;;;5.50;;
19595;SDS011;9945;46.010;8.946;2023-04-28T03:55:49;6.40;;;5.35;;
19595;SDS011;9945;46.010;8.946;2023-04-28T03:58:16;5.50;;;5.03;;
19595;SDS011;9945;46.010;8.946;2023-04-28T04:00:44;6.07;;;5.47;;
19595;SDS011;9945;46.010;8.946;2023-04-28T04:03:11;5.90;;;5.40;;
19595;SDS011;9945;46.010;8.946;2023-04-28T04:05:38;6.00;;;5.40;;
19595;SDS011;9945;46.010;8.946;2023-04-28T04:08:06;6.32;;;5.72;;
19595;SDS011;9945;46.010;8.946;2023-04-28T04:10:33;6.30;;;5.05;;
19595;SDS011;9945;46.010;8.946;2023-04-28T04:13:00;5.90;;;5.30;;
19595;SDS011;9945;46.010;8.946;2023-04-28T04:15:27;8.38;;;4.90;;
19595;SDS011;9945;46.010;8.946;2023-04-28T04:17:55;7.97;;;5.40;;
19595;SDS011;9945;46.010;8.946;2023-04-28T04:20:22;5.90;;;5.32;;
19595;SDS011;9945;46.010;8.946;2023-04-28T04:22:48;5.45;;;4.90;;
19595;SDS011;9945;46.010;8.946;2023-04-28T04:25:15;6.47;;;5.40;;
19595;SDS011;9945;46.010;8.946;2023-04-28T04:27:42;5.32;;;4.93;;
19595;SDS011;9945;46.010;8.946;2023-04-28T04:30:09;7.82;;;5.82;;
19595;SDS011;9945;46.010;8.946;2023-04-28T04:32:36;5.75;;;5.35;;
19595;SDS011;9945;46.010;8.946;2023-04-28T04:35:05;7.43;;;5.97;;
19595;SDS011;9945;46.010;8.946;2023-04-28T04:37:32;5.97;;;5.40;;
19595;SDS011;9945;46.010;8.946;2023-04-28T04:39:59;6.25;;;5.47;;
19595;SDS011;9945;46.010;8.946;2023-04-28T04:42:27;6.05;;;5.55;;
19595;SDS011;9945;46.010;8.946;2023-04-28T04:44:53;5.85;;;5.35;;
19595;SDS011;9945;46.010;8.946;2023-04-28T04:47:20;6.10;;;5.03;;
19595;SDS011;9945;46.010;8.946;2023-04-28T04:49:48;5.75;;;5.22;;
19595;SDS011;9945;46.010;8.946;2023-04-28T04:52:16;6.00;;;5.47;;
19595;SDS011;9945;46.010;8.946;2023-04-28T04:54:44;7.25;;;5.78;;
19595;SDS011;9945;46.010;8.946;2023-04-28T04:57:11;9.95;;;5.60;;
19595;SDS011;9945;46.010;8.946;2023-04-28T04:59:38;6.00;;;5.38;;
19595;SDS011;9945;46.010;8.946;2023-04-28T05:02:05;7.50;;;5.25;;
19595;SDS011;9945;46.010;8.946;2023-04-28T05:04:31;5.20;;;4.72;;
19595;SDS011;9945;46.010;8.946;2023-04-28T05:06:58;6.93;;;6.00;;
19595;SDS011;9945;46.010;8.946;2023-04-28T05:09:27;5.57;;;5.07;;
19595;SDS011;9945;46.010;8.946;2023-04-28T05:11:54;5.30;;;4.80;;
19595;SDS011;9945;46.010;8.946;2023-04-28T05:14:22;8.32;;;5.38;;
19595;SDS011;9945;46.010;8.946;2023-04-28T05:16:48;8.75;;;4.97;;
19595;SDS011;9945;46.010;8.946;2023-04-28T05:19:15;6.82;;;5.82;;
19595;SDS011;9945;46.010;8.946;2023-04-28T05:21:42;7.85;;;5.47;;
19595;SDS011;9945;46.010;8.946;2023-04-28T05:24:11;6.85;;;6.25;;
19595;SDS011;9945;46.010;8.946;2023-04-28T05:26:39;5.97;;;5.47;;
19595;SDS011;9945;46.010;8.946;2023-04-28T05:29:06;8.07;;;5.80;;
19595;SDS011;9945;46.010;8.946;2023-04-28T05:31:33;6.88;;;5.45;;
19595;SDS011;9945;46.010;8.946;2023-04-28T05:34:00;6.40;;;5.80;;
19595;SDS011;9945;46.010;8.946;2023-04-28T05:36:27;6.28;;;5.45;;
19595;SDS011;9945;46.010;8.946;2023-04-28T05:38:54;6.95;;;5.40;;
19595;SDS011;9945;46.010;8.946;2023-04-28T05:41:20;8.70;;;6.07;;
19595;SDS011;9945;46.010;8.946;2023-04-28T05:43:49;8.75;;;6.35;;
19595;SDS011;9945;46.010;8.946;2023-04-28T05:46:16;6.95;;;6.38;;
19595;SDS011;9945;46.010;8.946;2023-04-28T05:48:43;5.88;;;5.28;;
19595;SDS011;9945;46.010;8.946;2023-04-28T05:51:11;9.80;;;6.35;;
19595;SDS011;9945;46.010;8.946;2023-04-28T05:53:38;8.02;;;6.78;;
19595;SDS011;9945;46.010;8.946;2023-04-28T05:56:05;8.57;;;6.20;;
19595;SDS011;9945;46.010;8.946;2023-04-28T05:58:32;6.68;;;6.03;;
19595;SDS011;9945;46.010;8.946;2023-04-28T06:01:00;5.65;;;5.13;;
19595;SDS011;9945;46.010;8.946;2023-04-28T06:03:27;7.32;;;5.53;;
19595;SDS011;9945;46.010;8.946;2023-04-28T06:05:54;9.88;;;5.68;;
19595;SDS011;9945;46.010;8.946;2023-04-28T06:08:21;7.82;;;5.93;;
19595;SDS011;9945;46.010;8.946;2023-04-28T06:10:48;6.50;;;5.65;;
19595;SDS011;9945;46.010;8.946;2023-04-28T06:13:15;5.82;;;5.32;;
19595;SDS011;9945;46.010;8.946;2023-04-28T06:15:42;8.75;;;5.75;;
19595;SDS011;9945;46.010;8.946;2023-04-28T06:18:10;10.95;;;6.00;;
19595;SDS011;9945;46.010;8.946;2023-04-28T06:20:37;9.07;;;6.18;;
19595;SDS011;9945;46.010;8.946;2023-04-28T06:23:03;6.85;;;5.05;;
19595;SDS011;9945;46.010;8.946;2023-04-28T06:25:30;8.57;;;6.30;;
19595;SDS011;9945;46.010;8.946;2023-04-28T06:27:57;6.43;;;5.70;;
19595;SDS011;9945;46.010;8.946;2023-04-28T06:30:24;10.48;;;6.50;;
19595;SDS011;9945;46.010;8.946;2023-04-28T06:32:51;6.35;;;5.70;;
19595;SDS011;9945;46.010;8.946;2023-04-28T06:35:20;10.90;;;5.82;;
19595;SDS011;9945;46.010;8.946;2023-04-28T06:37:48;7.47;;;6.00;;
19595;SDS011;9945;46.010;8.946;2023-04-28T06:40:15;6.78;;;6.05;;
19595;SDS011;9945;46.010;8.946;2023-04-28T06:42:42;8.57;;;5.90;;
19595;SDS011;9945;46.010;8.946;2023-04-28T06:45:12;6.85;;;6.25;;
19595;SDS011;9945;46.010;8.946;2023-04-28T06:47:42;11.40;;;6.75;;
19595;SDS011;9945;46.010;8.946;2023-04-28T06:50:09;7.53;;;5.90;;
19595;SDS011;9945;46.010;8.946;2023-04-28T06:52:38;6.38;;;5.78;;
19595;SDS011;9945;46.010;8.946;2023-04-28T06:55:05;7.95;;;5.72;;
19595;SDS011;9945;46.010;8.946;2023-04-28T06:57:33;7.80;;;5.72;;
19595;SDS011;9945;46.010;8.946;2023-04-28T07:00:02;10.30;;;5.40;;
19595;SDS011;9945;46.010;8.946;2023-04-28T07:02:29;8.38;;;6.05;;
19595;SDS011;9945;46.010;8.946;2023-04-28T07:04:56;7.72;;;5.95;;
19595;SDS011;9945;46.010;8.946;2023-04-28T07:07:23;6.38;;;5.82;;
19595;SDS011;9945;46.010;8.946;2023-04-28T07:09:51;8.60;;;6.00;;
19595;SDS011;9945;46.010;8.946;2023-04-28T07:12:19;8.65;;;6.55;;
19595;SDS011;9945;46.010;8.946;2023-04-28T07:14:46;9.27;;;6.32;;
19595;SDS011;9945;46.010;8.946;2023-04-28T07:17:14;9.75;;;6.22;;
19595;SDS011;9945;46.010;8.946;2023-04-28T07:19:41;6.53;;;5.97;;
19595;SDS011;9945;46.010;8.946;2023-04-28T07:22:08;7.65;;;6.60;;
19595;SDS011;9945;46.010;8.946;2023-04-28T07:24:35;7.25;;;6.53;;
19595;SDS011;9945;46.010;8.946;2023-04-28T07:27:03;8.13;;;6.65;;
19595;SDS011;9945;46.010;8.946;2023-04-28T07:29:30;8.98;;;6.07;;
19595;SDS011;9945;46.010;8.946;2023-04-28T07:33:02;12.15;;;6.88;;
19595;SDS011;9945;46.010;8.946;2023-04-28T07:35:29;10.68;;;8.10;;
19595;SDS011;9945;46.010;8.946;2023-04-28T07:37:56;13.25;;;6.78;;
19595;SDS011;9945;46.010;8.946;2023-04-28T07:40:23;13.20;;;6.85;;
19595;SDS011;9945;46.010;8.946;2023-04-28T07:42:50;7.50;;;6.65;;
19595;SDS011;9945;46.010;8.946;2023-04-28T07:45:17;10.75;;;6.20;;
19595;SDS011;9945;46.010;8.946;2023-04-28T07:47:44;8.00;;;7.15;;
19595;SDS011;9945;46.010;8.946;2023-04-28T07:50:12;10.13;;;6.53;;
19595;SDS011;9945;46.010;8.946;2023-04-28T07:52:40;7.65;;;6.80;;
19595;SDS011;9945;46.010;8.946;2023-04-28T07:55:07;6.45;;;5.85;;
19595;SDS011;9945;46.010;8.946;2023-04-28T07:57:34;7.68;;;6.20;;
19595;SDS011;9945;46.010;8.946;2023-04-28T08:00:01;7.63;;;6.03;;
19595;SDS011;9945;46.010;8.946;2023-04-28T08:02:29;9.75;;;6.07;;
19595;SDS011;9945;46.010;8.946;2023-04-28T08:04:58;13.48;;;7.15;;
19595;SDS011;9945;46.010;8.946;2023-04-28T08:07:26;12.25;;;6.57;;
19595;SDS011;9945;46.010;8.946;2023-04-28T08:09:54;6.45;;;5.80;;
19595;SDS011;9945;46.010;8.946;2023-04-28T08:12:21;8.30;;;6.28;;
19595;SDS011;9945;46.010;8.946;2023-04-28T08:14:47;7.50;;;5.85;;
19595;SDS011;9945;46.010;8.946;2023-04-28T08:17:14;7.13;;;6.07;;
19595;SDS011;9945;46.010;8.946;2023-04-28T08:19:43;9.57;;;6.67;;
19595;SDS011;9945;46.010;8.946;2023-04-28T08:22:10;7.20;;;6.63;;
19595;SDS011;9945;46.010;8.946;2023-04-28T08:24:39;7.75;;;6.53;;
19595;SDS011;9945;46.010;8.946;2023-04-28T08:27:06;8.88;;;6.47;;
19595;SDS011;9945;46.010;8.946;2023-04-28T08:29:33;8.73;;;6.38;;
19595;SDS011;9945;46.010;8.946;2023-04-28T08:32:00;18.67;;;7.35;;
19595;SDS011;9945;46.010;8.946;2023-04-28T08:34:27;8.02;;;7.07;;
19595;SDS011;9945;46.010;8.946;2023-04-28T08:36:54;9.20;;;7.75;;
19595;SDS011;9945;46.010;8.946;2023-04-28T08:39:21;13.23;;;8.70;;
19595;SDS011;9945;46.010;8.946;2023-04-28T08:41:49;11.05;;;9.25;;
19595;SDS011;9945;46.010;8.946;2023-04-28T08:44:16;11.88;;;9.63;;
19595;SDS011;9945;46.010;8.946;2023-04-28T08:46:44;14.23;;;9.80;;
19595;SDS011;9945;46.010;8.946;2023-04-28T08:49:13;11.25;;;8.38;;
19595;SDS011;9945;46.010;8.946;2023-04-28T08:51:43;9.68;;;8.75;;
19595;SDS011;9945;46.010;8.946;2023-04-28T08:54:13;9.85;;;8.25;;
19595;SDS011;9945;46.010;8.946;2023-04-28T08:56:41;9.57;;;8.23;;
19595;SDS011;9945;46.010;8.946;2023-04-28T08:59:11;10.13;;;8.93;;
19595;SDS011;9945;46.010;8.946;2023-04-28T09:01:38;10.07;;;7.78;;
19595;SDS011;9945;46.010;8.946;2023-04-28T09:04:05;10.98;;;7.40;;
19595;SDS011;9945;46.010;8.946;2023-04-28T09:06:32;8.43;;;7.60;;
19595;SDS011;9945;46.010;8.946;2023-04-28T09:09:20;7.80;;;6.70;;
19595;SDS011;9945;46.010;8.946;2023-04-28T09:11:51;17.83;;;8.05;;
19595;SDS011;9945;46.010;8.946;2023-04-28T09:14:24;8.40;;;7.60;;
19595;SDS011;9945;46.010;8.946;2023-04-28T09:16:51;12.45;;;8.02;;
19595;SDS011;9945;46.010;8.946;2023-04-28T09:19:18;10.75;;;8.60;;
19595;SDS011;9945;46.010;8.946;2023-04-28T09:21:46;13.13;;;7.72;;
19595;SDS011;9945;46.010;8.946;2023-04-28T09:24:27;10.00;;;7.63;;
19595;SDS011;9945;46.010;8.946;2023-04-28T09:26:55;8.60;;;7.75;;
19595;SDS011;9945;46.010;8.946;2023-04-28T09:29:22;12.35;;;7.22;;
19595;SDS011;9945;46.010;8.946;2023-04-28T09:31:50;9.77;;;7.65;;
19595;SDS011;9945;46.010;8.946;2023-04-28T09:34:17;10.50;;;7.40;;
19595;SDS011;9945;46.010;8.946;2023-04-28T09:36:44;8.75;;;7.22;;
19595;SDS011;9945;46.010;8.946;2023-04-28T09:39:11;11.93;;;7.35;;
19595;SDS011;9945;46.010;8.946;2023-04-28T09:41:38;12.52;;;6.90;;
19595;SDS011;9945;46.010;8.946;2023-04-28T09:44:09;8.60;;;6.88;;
19595;SDS011;9945;46.010;8.946;2023-04-28T09:46:38;12.90;;;8.02;;
19595;SDS011;9945;46.010;8.946;2023-04-28T09:49:06;8.57;;;7.57;;
19595;SDS011;9945;46.010;8.946;2023-04-28T09:51:33;9.57;;;7.40;;
19595;SDS011;9945;46.010;8.946;2023-04-28T09:54:00;9.93;;;6.82;;
19595;SDS011;9945;46.010;8.946;2023-04-28T09:56:29;6.78;;;6.18;;
19595;SDS011;9945;46.010;8.946;2023-04-28T09:58:57;9.65;;;5.80;;
19595;SDS011;9945;46.010;8.946;2023-04-28T10:01:26;10.57;;;6.53;;
19595;SDS011;9945;46.010;8.946;2023-04-28T10:03:58;8.60;;;6.38;;
19595;SDS011;9945;46.010;8.946;2023-04-28T10:06:27;10.20;;;6.68;;
19595;SDS011;9945;46.010;8.946;2023-04-28T10:08:55;8.60;;;7.60;;
19595;SDS011;9945;46.010;8.946;2023-04-28T10:11:24;11.02;;;5.93;;
19595;SDS011;9945;46.010;8.946;2023-04-28T10:13:52;7.18;;;6.47;;
19595;SDS011;9945;46.010;8.946;2023-04-28T10:16:20;8.27;;;6.60;;
19595;SDS011;9945;46.010;8.946;2023-04-28T10:18:48;7.28;;;5.93;;
19595;SDS011;9945;46.010;8.946;2023-04-28T10:21:17;10.65;;;6.15;;
19595;SDS011;9945;46.010;8.946;2023-04-28T10:24:06;8.20;;;5.93;;
19595;SDS011;9945;46.010;8.946;2023-04-28T10:29:34;9.52;;;5.68;;
19595;SDS011;9945;46.010;8.946;2023-04-28T10:32:17;12.55;;;5.38;;
19595;SDS011;9945;46.010;8.946;2023-04-28T10:34:50;8.27;;;6.18;;
19595;SDS011;9945;46.010;8.946;2023-04-28T10:37:18;8.65;;;5.60;;
19595;SDS011;9945;46.010;8.946;2023-04-28T10:42:57;6.13;;;5.60;;
19595;SDS011;9945;46.010;8.946;2023-04-28T10:51:31;5.68;;;5.18;;
19595;SDS011;9945;46.010;8.946;2023-04-28T10:54:09;6.43;;;5.80;;
19595;SDS011;9945;46.010;8.946;2023-04-28T10:56:40;8.05;;;6.10;;
19595;SDS011;9945;46.010;8.946;2023-04-28T10:59:28;6.45;;;5.25;;
19595;SDS011;9945;46.010;8.946;2023-04-28T11:01:58;9.05;;;5.50;;
19595;SDS011;9945;46.010;8.946;2023-04-28T11:05:17;4.55;;;4.15;;
19595;SDS011;9945;46.010;8.946;2023-04-28T11:11:15;5.50;;;3.97;;
19595;SDS011;9945;46.010;8.946;2023-04-28T11:13:43;8.10;;;4.97;;
19595;SDS011;9945;46.010;8.946;2023-04-28T11:16:12;6.20;;;4.68;;
19595;SDS011;9945;46.010;8.946;2023-04-28T11:18:48;6.20;;;4.22;;
19595;SDS011;9945;46.010;8.946;2023-04-28T11:21:17;5.50;;;4.40;;
19595;SDS011;9945;46.010;8.946;2023-04-28T11:23:44;7.90;;;4.07;;
19595;SDS011;9945;46.010;8.946;2023-04-28T11:26:11;5.45;;;4.03;;
19595;SDS011;9945;46.010;8.946;2023-04-28T11:31:25;4.72;;;4.32;;
19595;SDS011;9945;46.010;8.946;2023-04-28T11:33:56;5.82;;;3.92;;
19595;SDS011;9945;46.010;8.946;2023-04-28T11:36:26;5.95;;;3.85;;
19595;SDS011;9945;46.010;8.946;2023-04-28T11:38:59;5.20;;;3.35;;
19595;SDS011;9945;46.010;8.946;2023-04-28T11:41:29;5.72;;;3.17;;
19595;SDS011;9945;46.010;8.946;2023-04-28T11:43:56;4.45;;;3.60;;
19595;SDS011;9945;46.010;8.946;2023-04-28T11:46:24;5.15;;;3.25;;
19595;SDS011;9945;46.010;8.946;2023-04-28T11:49:02;5.13;;;3.72;;
19595;SDS011;9945;46.010;8.946;2023-04-28T11:51:33;3.72;;;3.42;;
19595;SDS011;9945;46.010;8.946;2023-04-28T11:54:03;7.50;;;3.83;;
19595;SDS011;9945;46.010;8.946;2023-04-28T11:56:35;4.85;;;4.03;;
19595;SDS011;9945;46.010;8.946;2023-04-28T11:59:03;4.30;;;3.80;;
19595;SDS011;9945;46.010;8.946;2023-04-28T12:01:33;6.10;;;3.78;;
19595;SDS011;9945;46.010;8.946;2023-04-28T12:04:09;7.50;;;3.70;;
19595;SDS011;9945;46.010;8.946;2023-04-28T12:06:36;5.38;;;3.80;;
19595;SDS011;9945;46.010;8.946;2023-04-28T12:09:13;8.77;;;6.45;;
19595;SDS011;9945;46.010;8.946;2023-04-28T12:11:51;7.95;;;3.90;;
19595;SDS011;9945;46.010;8.946;2023-04-28T12:14:18;4.28;;;3.85;;
19595;SDS011;9945;46.010;8.946;2023-04-28T12:16:47;8.73;;;3.88;;
19595;SDS011;9945;46.010;8.946;2023-04-28T12:19:14;6.05;;;4.32;;
19595;SDS011;9945;46.010;8.946;2023-04-28T12:21:56;5.65;;;4.40;;
19595;SDS011;9945;46.010;8.946;2023-04-28T12:24:25;4.43;;;4.03;;
19595;SDS011;9945;46.010;8.946;2023-04-28T12:26:52;5.30;;;4.28;;
19595;SDS011;9945;46.010;8.946;2023-04-28T12:29:37;5.95;;;4.82;;
19595;SDS011;9945;46.010;8.946;2023-04-28T12:32:07;6.47;;;4.35;;
19595;SDS011;9945;46.010;8.946;2023-04-28T12:34:35;4.32;;;3.95;;
19595;SDS011;9945;46.010;8.946;2023-04-28T12:37:04;5.43;;;4.32;;
19595;SDS011;9945;46.010;8.946;2023-04-28T12:39:31;4.53;;;4.05;;
19595;SDS011;9945;46.010;8.946;2023-04-28T12:41:59;4.45;;;3.50;;
19595;SDS011;9945;46.010;8.946;2023-04-28T12:44:27;4.00;;;3.60;;
19595;SDS011;9945;46.010;8.946;2023-04-28T12:46:59;8.20;;;4.00;;
19595;SDS011;9945;46.010;8.946;2023-04-28T12:49:28;5.45;;;3.75;;
19595;SDS011;9945;46.010;8.946;2023-04-28T12:51:55;4.45;;;3.95;;
19595;SDS011;9945;46.010;8.946;2023-04-28T12:54:22;4.25;;;3.85;;
19595;SDS011;9945;46.010;8.946;2023-04-28T12:56:49;4.20;;;3.75;;
19595;SDS011;9945;46.010;8.946;2023-04-28T12:59:16;7.60;;;3.78;;
19595;SDS011;9945;46.010;8.946;2023-04-28T13:01:43;3.30;;;3.00;;
19595;SDS011;9945;46.010;8.946;2023-04-28T13:04:10;7.25;;;3.50;;
19595;SDS011;9945;46.010;8.946;2023-04-28T13:06:38;4.72;;;3.90;;
19595;SDS011;9945;46.010;8.946;2023-04-28T13:09:08;6.55;;;3.60;;
19595;SDS011;9945;46.010;8.946;2023-04-28T13:11:35;4.53;;;3.33;;
19595;SDS011;9945;46.010;8.946;2023-04-28T13:14:02;4.97;;;3.63;;
19595;SDS011;9945;46.010;8.946;2023-04-28T13:16:29;4.40;;;3.85;;
19595;SDS011;9945;46.010;8.946;2023-04-28T13:18:56;3.97;;;3.58;;
19595;SDS011;9945;46.010;8.946;2023-04-28T13:21:23;5.38;;;3.88;;
19595;SDS011;9945;46.010;8.946;2023-04-28T13:23:52;3.80;;;3.33;;
19595;SDS011;9945;46.010;8.946;2023-04-28T13:26:20;4.25;;;3.58;;
19595;SDS011;9945;46.010;8.946;2023-04-28T13:28:48;3.53;;;3.20;;
19595;SDS011;9945;46.010;8.946;2023-04-28T13:31:16;7.85;;;3.40;;
19595;SDS011;9945;46.010;8.946;2023-04-28T13:33:43;5.15;;;3.85;;
19595;SDS011;9945;46.010;8.946;2023-04-28T13:36:10;3.50;;;3.20;;
19595;SDS011;9945;46.010;8.946;2023-04-28T13:38:37;3.95;;;3.03;;
19595;SDS011;9945;46.010;8.946;2023-04-28T13:41:06;7.38;;;3.13;;
19595;SDS011;9945;46.010;8.946;2023-04-28T13:43:33;4.88;;;3.17;;
19595;SDS011;9945;46.010;8.946;2023-04-28T13:46:00;4.55;;;2.90;;
19595;SDS011;9945;46.010;8.946;2023-04-28T13:48:31;3.55;;;3.25;;
19595;SDS011;9945;46.010;8.946;2023-04-28T13:50:58;3.42;;;3.15;;
19595;SDS011;9945;46.010;8.946;2023-04-28T13:53:25;3.63;;;3.15;;
19595;SDS011;9945;46.010;8.946;2023-04-28T13:55:52;3.38;;;2.92;;
19595;SDS011;9945;46.010;8.946;2023-04-28T13:58:22;3.13;;;2.63;;
19595;SDS011;9945;46.010;8.946;2023-04-28T14:00:50;4.10;;;3.70;;
19595;SDS011;9945;46.010;8.946;2023-04-28T14:03:17;4.03;;;3.70;;
19595;SDS011;9945;46.010;8.946;2023-04-28T14:05:46;5.22;;;3.08;;
19595;SDS011;9945;46.010;8.946;2023-04-28T14:08:13;4.88;;;2.78;;
19595;SDS011;9945;46.010;8.946;2023-04-28T14:10:40;4.80;;;3.38;;
19595;SDS011;9945;46.010;8.946;2023-04-28T14:13:07;4.60;;;3.28;;
19595;SDS011;9945;46.010;8.946;2023-04-28T14:15:36;4.60;;;3.33;;
19595;SDS011;9945;46.010;8.946;2023-04-28T14:18:03;5.35;;;3.17;;
19595;SDS011;9945;46.010;8.946;2023-04-28T14:20:31;3.78;;;2.78;;
19595;SDS011;9945;46.010;8.946;2023-04-28T14:22:58;6.93;;;3.78;;
19595;SDS011;9945;46.010;8.946;2023-04-28T14:25:25;6.30;;;3.58;;
19595;SDS011;9945;46.010;8.946;2023-04-28T14:27:52;6.95;;;3.30;;
19595;SDS011;9945;46.010;8.946;2023-04-28T14:30:19;5.38;;;2.95;;
19595;SDS011;9945;46.010;8.946;2023-04-28T14:32:48;5.97;;;3.28;;
19595;SDS011;9945;46.010;8.946;2023-04-28T14:35:15;4.65;;;3.17;;
19595;SDS011;9945;46.010;8.946;2023-04-28T14:37:45;5.18;;;2.97;;
19595;SDS011;9945;46.010;8.946;2023-04-28T14:40:12;5.95;;;3.35;;
19595;SDS011;9945;46.010;8.946;2023-04-28T14:42:40;3.97;;;2.95;;
19595;SDS011;9945;46.010;8.946;2023-04-28T14:45:09;3.55;;;2.80;;
19595;SDS011;9945;46.010;8.946;2023-04-28T14:47:37;3.80;;;2.70;;
19595;SDS011;9945;46.010;8.946;2023-04-28T14:50:06;4.63;;;3.17;;
19595;SDS011;9945;46.010;8.946;2023-04-28T14:52:35;3.60;;;2.60;;
19595;SDS011;9945;46.010;8.946;2023-04-28T14:55:02;3.80;;;2.97;;
19595;SDS011;9945;46.010;8.946;2023-04-28T14:57:30;5.03;;;3.00;;
19595;SDS011;9945;46.010;8.946;2023-04-28T14:59:58;10.25;;;3.13;;
19595;SDS011;9945;46.010;8.946;2023-04-28T15:02:25;3.53;;;3.22;;
19595;SDS011;9945;46.010;8.946;2023-04-28T15:04:53;5.80;;;3.20;;
19595;SDS011;9945;46.010;8.946;2023-04-28T15:07:21;3.40;;;3.13;;
19595;SDS011;9945;46.010;8.946;2023-04-28T15:09:50;3.63;;;2.72;;
19595;SDS011;9945;46.010;8.946;2023-04-28T15:12:17;5.47;;;3.22;;
19595;SDS011;9945;46.010;8.946;2023-04-28T15:14:45;3.80;;;2.47;;
19595;SDS011;9945;46.010;8.946;2023-04-28T15:17:12;4.57;;;3.05;;
19595;SDS011;9945;46.010;8.946;2023-04-28T15:19:38;4.43;;;2.92;;
19595;SDS011;9945;46.010;8.946;2023-04-28T15:22:05;2.95;;;2.60;;
19595;SDS011;9945;46.010;8.946;2023-04-28T15:24:33;2.63;;;2.42;;